Waldeck, Canada
Current Conditions -  °F | °C
As of 5:00 PM on Thursday 18 Dec 2014 (Local Time) from CYYN Reporting Station
Clear Clear  
Wind Chill: 16°   Ceiling: Unl
Heat Index: 25°   Visibility: 9mi
Dew Point: 25°   Wind: 8mph
Humidity: 100%   Direction: 240°WSW
Pressure: 29.82"   Gusts: NA
Location:  50.36°N, 107.59°W
Report Text: CYYN 182300Z AUTO 24007KT 9SM CLR M04/M04 A2982 RMK SLP139
Loading
Personal Weather Stations






























Interactive Weather Map New forecast layout! Learn more

10-Day Weather Forecast

Advertisements
Track Severe Weather on mobile